A- A+ FrançaisEnglishEspañol中国

le plus proche LFBT Tarbes-Lourdes-PyrénéesLFAP Rethel-PertresLFMT Montpellier-Frejorgues LFLY Lyon-Bron

manche à air

La météo aéronautique pour les pilotes, la préparation du vol avec les METAR (METeorological Aerodrome Report, message d'observation des conditions météorologiques pour l'aviation) et Les TAF (Terminal Aerodrome Forecast : message de prévision à court terme des conditions météorologiques pour l'aviation). Et les autres ressources comme les VAC (Visual Approch Chart) et les NOTAM (Notice To Airman) pour préprer les vols.

Aéroport Mary's Harbour (Canada) / OACI CYMH/ IATA YMH

L'altitude de l'aéroport Mary's Harbour est de 12 m=39 ft. Il est situé à proximité de Mary's Harbour (Canada). La météo générale à 5 jours est disponible pour Newfoundland and Labrador situé à 35.2 km.

METAR de l'aéroport Mary's Harbour - CYMH

CYMH 161300Z AUTO 20008KT 9SM BKN015 OVC024 09/08 A2980 RMK SLP093

Décodage du METAR de l'aéroport Mary's Harbour (CA)

METAR émis par CYMH le mercredi 16 octobre 2019 à 13:00 heure TU. C'est un METAR généré automatiquement. Attention ce METAR est obsolète car il a été émis il y a 8 heure et 32 minutes.

La visibilité est de 14.5 km=9 sm.

La température est de 9°C=48 °F et le point rosée est de 8°C=46 °F . Ce qui correspond à 93% d'humidité relative.

Le QNH est de 1009 hPa=29.8 inHg

Vent de 8 kt=15 km/h, orienté à 200°.

Nuages : Couverture nuageuse fragmentée à 1500 ft=460 mètres. Couverture nuageuse soudée à 2400 ft=730 mètres.

RMK SLP093

TAF de l'aéroport Mary's Harbour - CYMH

CYMH 160945Z 1609/1621 VRB03KT P6SM SCT008 OVC050 TEMPO 1609/1614 2SM BR BKN008 OVC050 FM161400 25010KT P6SM SCT050 RMK FCST BASED ON AUTO OBS. NXT FCST BY 161400Z

CYMH 160945Z 1609/1621 VRB03KT P6SM nuages épars à 008 couverture nuageuse soudée à 050 temporairement 1609/1614 2SM brume couverture nuageuse fragmentée à 008 couverture nuageuse soudée à 050 FM161400 25010KT P6SM nuages épars à 050 remarques trombe ST BASED ON AUTO OBS. NXT trombe ST BY 161400Z

Aéroport à proximité de Mary's Harbour

Météo générale à 5 jours à Newfoundland and Labrador (35.2 km)CYAY Aéroport St Anthony (103 km)CYBX Aéroport Lourdes Le Blanc Sablon (133 km)CYCA Aéroport Cartwright (173 km)CYIF Aéroport St Augustin (228 km)CYYR Aéroport Goose Bay (328 km)CYHR Aéroport Chevery (333 km)

Vue aérienne de l'aéroport Mary's Harbour

NOTAM de l'aéroport Mary's Harbour

Les NOTAM sont fournis sans aucune garantie de leur actualité. Le pilote est le seul responsable de la vérification de sa validité avant de l'utiliser opérationnellement pour préparer un vol ou l'utiliser lors de sa navigation.

Pas de NOTAM

Sources des données